Time;durP1;ratioP1;P1;durP2;ratioP2;P2;SDS_P1;SDS_P2;PMS_P1;PMS_P2;Temp;Humidity;BMP_temperature;BMP_pressure;BME280_temperature;BME280_humidity;BME280_pressure;Samples;Min_cycle;Max_cycle;Signal;HPM_P1;HPM_P2
2023/03/23 00:00:53;;;;;;;2.90;1.77;;;;;;;;;;4919082;29;20186;-75
2023/03/23 00:03:21;;;;;;;5.00;1.60;;;;;;;;;;4920150;29;20478;-72
2023/03/23 00:05:50;;;;;;;1.90;1.50;;;;;;;;;;4919804;29;20474;-72
2023/03/23 00:08:22;;;;;;;2.75;1.52;;;;;;;;;;4919681;29;20411;-72
2023/03/23 00:10:52;;;;;;;2.27;1.83;;;;;;;;;;4920055;29;20253;-72
2023/03/23 00:13:19;;;;;;;3.43;1.43;;;;;;;;;;4919792;29;20414;-72
2023/03/23 00:15:45;;;;;;;2.50;1.90;;;;;;;;;;4919984;29;20466;-72
2023/03/23 00:18:21;;;;;;;1.70;1.60;;;;;;;;;;4919418;29;20784;-72
2023/03/23 00:20:48;;;;;;;2.47;1.70;;;;;;;;;;4920143;29;20413;-72
2023/03/23 00:23:18;;;;;;;3.30;1.43;;;;;;;;;;4919612;29;20481;-72
2023/03/23 00:25:45;;;;;;;3.03;1.60;;;;;;;;;;4919600;29;20442;-72
2023/03/23 00:28:12;;;;;;;4.00;1.77;;;;;;;;;;4919649;29;20891;-72
2023/03/23 00:30:39;;;;;;;2.90;1.67;;;;;;;;;;4919879;29;20417;-72
2023/03/23 00:33:05;;;;;;;2.53;1.60;;;;;;;;;;4919548;29;20417;-72
2023/03/23 00:35:31;;;;;;;1.97;1.20;;;;;;;;;;4919287;29;20466;-72
2023/03/23 00:37:58;;;;;;;2.50;1.60;;;;;;;;;;4919271;29;20470;-73
2023/03/23 00:40:26;;;;;;;2.50;1.63;;;;;;;;;;4919536;29;20478;-72
2023/03/23 00:42:52;;;;;;;3.50;2.00;;;;;;;;;;4919774;29;20787;-72
2023/03/23 00:45:18;;;;;;;3.00;1.30;;;;;;;;;;4919236;29;20446;-72
2023/03/23 00:47:46;;;;;;;2.53;1.60;;;;;;;;;;4919257;29;20516;-72
2023/03/23 00:50:13;;;;;;;3.45;2.30;;;;;;;;;;4919765;29;20771;-72
2023/03/23 00:52:39;;;;;;;1.80;1.70;;;;;;;;;;4918945;29;20186;-72
2023/03/23 00:55:06;;;;;;;3.87;2.00;;;;;;;;;;4918584;29;20410;-72
2023/03/23 00:57:32;;;;;;;1.83;1.70;;;;;;;;;;4919486;29;20462;-73
2023/03/23 00:59:58;;;;;;;2.20;1.80;;;;;;;;;;4919484;29;20417;-73
2023/03/23 01:02:27;;;;;;;3.57;1.73;;;;;;;;;;4919307;29;20186;-72
2023/03/23 01:04:53;;;;;;;1.70;1.60;;;;;;;;;;4919572;29;20407;-72
2023/03/23 01:07:23;;;;;;;1.90;1.60;;;;;;;;;;4918914;29;20421;-72
2023/03/23 01:09:53;;;;;;;2.13;1.70;;;;;;;;;;4919227;29;20407;-72
2023/03/23 01:12:19;;;;;;;2.83;2.07;;;;;;;;;;4919216;29;20423;-72
2023/03/23 01:14:45;;;;;;;2.30;1.37;;;;;;;;;;4923214;29;20861;-72
2023/03/23 01:17:11;;;;;;;1.60;1.50;;;;;;;;;;4922136;29;20958;-72
2023/03/23 01:19:37;;;;;;;1.60;1.50;;;;;;;;;;4922589;29;20789;-72
2023/03/23 01:22:03;;;;;;;3.60;2.07;;;;;;;;;;4922405;29;20419;-73
2023/03/23 01:24:29;;;;;;;1.93;1.83;;;;;;;;;;4922954;29;20424;-72
2023/03/23 01:26:55;;;;;;;2.10;1.90;;;;;;;;;;4922947;29;20480;-72
2023/03/23 01:29:21;;;;;;;4.40;1.73;;;;;;;;;;4922092;29;20411;-72
2023/03/23 01:31:47;;;;;;;2.03;1.70;;;;;;;;;;4905601;29;20466;-72
2023/03/23 01:34:13;;;;;;;2.07;1.80;;;;;;;;;;4922389;29;20414;-72
2023/03/23 01:36:40;;;;;;;2.93;2.60;;;;;;;;;;4921975;29;21062;-72
2023/03/23 01:39:06;;;;;;;2.20;2.00;;;;;;;;;;4921792;29;20967;-72
2023/03/23 01:41:33;;;;;;;3.77;2.07;;;;;;;;;;4922461;29;20632;-71
2023/03/23 01:44:28;;;;;;;2.20;1.77;;;;;;;;;;4921869;29;20486;-72
2023/03/23 01:46:54;;;;;;;3.20;2.23;;;;;;;;;;4922254;29;20209;-72
2023/03/23 01:49:25;;;;;;;3.75;2.60;;;;;;;;;;4921795;29;20546;-72
2023/03/23 01:51:53;;;;;;;3.33;2.50;;;;;;;;;;4922594;29;20162;-72
2023/03/23 01:54:21;;;;;;;2.78;2.05;;;;;;;;;;4922011;29;20402;-71
2023/03/23 01:56:52;;;;;;;2.20;2.00;;;;;;;;;;4922089;29;20218;-72
2023/03/23 01:59:20;;;;;;;2.35;2.10;;;;;;;;;;4921762;29;20186;-73
2023/03/23 02:01:46;;;;;;;3.13;2.83;;;;;;;;;;4921666;29;20205;-73
2023/03/23 02:04:14;;;;;;;3.85;2.25;;;;;;;;;;4921731;29;20182;-73
2023/03/23 02:06:40;;;;;;;3.25;1.75;;;;;;;;;;4921355;29;20198;-72
2023/03/23 02:09:06;;;;;;;8.38;2.20;;;;;;;;;;4921398;29;20200;-73
2023/03/23 02:11:32;;;;;;;2.50;2.30;;;;;;;;;;4921949;29;20643;-73
2023/03/23 02:13:59;;;;;;;2.67;2.38;;;;;;;;;;4921718;29;20178;-72
2023/03/23 02:16:32;;;;;;;2.40;2.20;;;;;;;;;;4921851;29;20649;-72
2023/03/23 02:19:04;;;;;;;2.58;2.20;;;;;;;;;;4922173;29;20166;-73
2023/03/23 02:21:30;;;;;;;3.10;2.38;;;;;;;;;;4921702;29;20538;-72
2023/03/23 02:23:59;;;;;;;2.27;2.03;;;;;;;;;;4921362;29;20265;-73
2023/03/23 02:26:31;;;;;;;4.55;2.20;;;;;;;;;;4921694;29;20414;-73
2023/03/23 02:29:16;;;;;;;2.35;2.00;;;;;;;;;;4921415;29;20167;-72
2023/03/23 02:31:42;;;;;;;3.70;2.97;;;;;;;;;;4921468;29;20181;-72
2023/03/23 02:34:12;;;;;;;4.53;2.30;;;;;;;;;;4920999;29;20183;-72
2023/03/23 02:36:43;;;;;;;3.75;2.00;;;;;;;;;;4920703;29;20640;-72
2023/03/23 02:39:09;;;;;;;2.92;1.80;;;;;;;;;;4921009;29;20175;-72
2023/03/23 02:42:01;;;;;;;2.10;1.90;;;;;;;;;;4921105;29;20269;-72
2023/03/23 02:44:29;;;;;;;5.25;3.00;;;;;;;;;;4918122;29;20190;-72
2023/03/23 02:46:57;;;;;;;2.28;2.08;;;;;;;;;;4921107;29;20198;-72
2023/03/23 02:49:25;;;;;;;2.30;1.90;;;;;;;;;;4920940;29;20305;-72
2023/03/23 02:51:51;;;;;;;3.60;2.05;;;;;;;;;;4921062;29;20182;-71
2023/03/23 02:54:19;;;;;;;2.75;2.00;;;;;;;;;;4920775;29;20182;-72
2023/03/23 02:56:46;;;;;;;2.33;2.08;;;;;;;;;;4921101;29;20249;-72
2023/03/23 02:59:12;;;;;;;2.13;1.92;;;;;;;;;;4921131;29;20185;-72
2023/03/23 03:01:38;;;;;;;2.25;2.00;;;;;;;;;;4920950;29;20170;-72
2023/03/23 03:04:06;;;;;;;2.33;2.13;;;;;;;;;;4921196;29;20673;-73
2023/03/23 03:06:35;;;;;;;2.13;1.92;;;;;;;;;;4921031;29;20429;-72
2023/03/23 03:09:02;;;;;;;3.45;2.17;;;;;;;;;;4920362;29;20647;-72
2023/03/23 03:11:28;;;;;;;1.98;1.63;;;;;;;;;;4920549;29;20174;-72
2023/03/23 03:13:59;;;;;;;4.43;1.70;;;;;;;;;;4904369;29;20197;-72
2023/03/23 03:16:28;;;;;;;4.53;1.73;;;;;;;;;;4920429;29;20245;-72
2023/03/23 03:18:59;;;;;;;1.63;1.52;;;;;;;;;;4920378;29;20221;-72
2023/03/23 03:21:27;;;;;;;2.72;2.10;;;;;;;;;;4919990;29;20190;-73
2023/03/23 03:23:56;;;;;;;2.05;1.60;;;;;;;;;;4920509;29;20170;-72
2023/03/23 03:26:26;;;;;;;1.77;1.67;;;;;;;;;;4920404;29;20600;-72
2023/03/23 03:28:52;;;;;;;1.65;1.55;;;;;;;;;;4920869;29;20174;-72
2023/03/23 03:31:20;;;;;;;2.25;1.80;;;;;;;;;;4919873;29;20178;-72
2023/03/23 03:33:46;;;;;;;2.35;1.70;;;;;;;;;;4920259;29;20178;-72
2023/03/23 03:36:17;;;;;;;2.40;1.60;;;;;;;;;;4919349;29;20242;-72
2023/03/23 03:38:44;;;;;;;2.47;1.98;;;;;;;;;;4920734;29;20217;-72
2023/03/23 03:41:10;;;;;;;3.78;1.95;;;;;;;;;;4919841;29;20186;-72
2023/03/23 03:43:36;;;;;;;1.80;1.60;;;;;;;;;;4920403;29;20233;-72
2023/03/23 03:46:03;;;;;;;2.63;1.75;;;;;;;;;;4919981;29;20246;-72
2023/03/23 03:48:29;;;;;;;3.03;1.83;;;;;;;;;;4919676;29;20214;-73
2023/03/23 03:50:56;;;;;;;5.88;1.60;;;;;;;;;;4919879;29;20592;-72
2023/03/23 03:53:22;;;;;;;1.92;1.77;;;;;;;;;;4919588;29;20174;-73
2023/03/23 03:55:49;;;;;;;1.50;1.40;;;;;;;;;;4920339;29;20181;-72
2023/03/23 03:58:15;;;;;;;1.70;1.60;;;;;;;;;;4919695;29;20229;-72
2023/03/23 04:00:41;;;;;;;3.45;1.52;;;;;;;;;;4920205;29;20186;-72
2023/03/23 04:03:08;;;;;;;2.80;1.50;;;;;;;;;;4920027;29;20566;-73
2023/03/23 04:05:36;;;;;;;2.10;1.50;;;;;;;;;;4920274;29;20193;-72
2023/03/23 04:08:03;;;;;;;2.53;2.08;;;;;;;;;;4920040;29;20186;-72
2023/03/23 04:10:29;;;;;;;4.13;2.60;;;;;;;;;;4919958;29;20265;-73
2023/03/23 04:12:55;;;;;;;3.13;1.70;;;;;;;;;;4920002;29;20232;-72
2023/03/23 04:15:22;;;;;;;1.85;1.75;;;;;;;;;;4919298;29;20184;-73
2023/03/23 04:17:48;;;;;;;2.65;1.75;;;;;;;;;;4919638;29;20675;-72
2023/03/23 04:20:17;;;;;;;2.20;1.37;;;;;;;;;;4919304;29;20182;-73
2023/03/23 04:22:44;;;;;;;1.83;1.60;;;;;;;;;;4919436;29;20766;-72
2023/03/23 04:25:11;;;;;;;3.35;1.50;;;;;;;;;;4919948;29;20182;-73
2023/03/23 04:27:38;;;;;;;2.20;2.00;;;;;;;;;;4919888;29;20533;-72
2023/03/23 04:30:04;;;;;;;2.15;1.95;;;;;;;;;;4920006;29;20174;-72
2023/03/23 04:32:30;;;;;;;3.00;1.70;;;;;;;;;;4919296;29;20273;-72
2023/03/23 04:35:00;;;;;;;1.43;1.30;;;;;;;;;;4919531;29;20186;-73
2023/03/23 04:37:28;;;;;;;1.40;1.30;;;;;;;;;;4918796;29;20461;-72
2023/03/23 04:40:00;;;;;;;3.13;1.75;;;;;;;;;;4919005;29;20185;-73
2023/03/23 04:42:27;;;;;;;1.80;1.70;;;;;;;;;;4919312;29;20169;-73
2023/03/23 04:44:54;;;;;;;2.28;1.73;;;;;;;;;;4919543;29;20174;-72
2023/03/23 04:47:20;;;;;;;2.03;1.70;;;;;;;;;;4920481;29;20220;-73
2023/03/23 04:49:46;;;;;;;2.00;1.80;;;;;;;;;;4922987;29;20579;-72
2023/03/23 04:52:12;;;;;;;2.00;1.37;;;;;;;;;;4923195;29;20179;-73
2023/03/23 04:54:38;;;;;;;2.40;1.80;;;;;;;;;;4923527;29;20497;-72
2023/03/23 04:57:04;;;;;;;2.50;2.00;;;;;;;;;;4923350;29;20253;-72
2023/03/23 04:59:30;;;;;;;1.60;1.33;;;;;;;;;;4923028;29;20414;-72
2023/03/23 05:01:56;;;;;;;3.33;1.90;;;;;;;;;;4922726;29;20758;-72
2023/03/23 05:04:24;;;;;;;2.67;2.47;;;;;;;;;;4923185;29;20186;-73
2023/03/23 05:06:50;;;;;;;4.68;1.70;;;;;;;;;;4923638;29;20533;-72
2023/03/23 05:09:16;;;;;;;2.20;2.00;;;;;;;;;;4922699;29;20190;-73
2023/03/23 05:11:42;;;;;;;3.95;1.95;;;;;;;;;;4906078;29;20186;-73
2023/03/23 05:14:08;;;;;;;5.70;2.30;;;;;;;;;;4922920;29;20247;-73
2023/03/23 05:16:39;;;;;;;2.87;2.00;;;;;;;;;;4922129;29;20472;-73
2023/03/23 05:19:07;;;;;;;2.47;1.50;;;;;;;;;;4922779;29;20398;-72
2023/03/23 05:21:34;;;;;;;2.30;2.10;;;;;;;;;;4922230;29;20190;-72
2023/03/23 05:24:00;;;;;;;3.83;1.70;;;;;;;;;;4922790;29;20184;-73
2023/03/23 05:26:29;;;;;;;1.87;1.60;;;;;;;;;;4922617;29;20414;-72
2023/03/23 05:28:56;;;;;;;1.63;1.30;;;;;;;;;;4922192;29;20419;-72
2023/03/23 05:31:24;;;;;;;1.77;1.40;;;;;;;;;;4922278;29;20258;-73
2023/03/23 05:33:50;;;;;;;1.67;1.30;;;;;;;;;;4922859;29;20182;-72
2023/03/23 05:36:16;;;;;;;2.88;1.83;;;;;;;;;;4921559;29;20234;-73
2023/03/23 05:38:45;;;;;;;2.70;1.70;;;;;;;;;;4922317;29;20201;-73
2023/03/23 05:41:11;;;;;;;2.33;1.60;;;;;;;;;;4922345;29;20523;-72
2023/03/23 05:43:37;;;;;;;4.30;1.45;;;;;;;;;;4922736;29;20194;-72
2023/03/23 05:46:03;;;;;;;1.60;1.30;;;;;;;;;;4922641;29;20201;-72
2023/03/23 05:48:29;;;;;;;2.58;1.65;;;;;;;;;;4921770;29;20175;-73
2023/03/23 05:50:56;;;;;;;2.10;1.80;;;;;;;;;;4922321;29;20186;-73
2023/03/23 05:53:23;;;;;;;2.30;1.90;;;;;;;;;;4921570;29;20966;-73
2023/03/23 05:55:49;;;;;;;2.45;1.42;;;;;;;;;;4905868;29;20411;-73
2023/03/23 05:58:15;;;;;;;1.92;1.20;;;;;;;;;;4902945;29;20225;-74
2023/03/23 06:00:41;;;;;;;2.60;1.60;;;;;;;;;;4903642;29;20195;-72
2023/03/23 06:03:07;;;;;;;6.05;1.75;;;;;;;;;;4903378;29;20510;-72
2023/03/23 06:05:33;;;;;;;3.80;1.80;;;;;;;;;;4903286;29;20543;-73
2023/03/23 06:07:59;;;;;;;1.93;1.03;;;;;;;;;;4903145;29;20198;-73
2023/03/23 06:10:26;;;;;;;2.75;1.30;;;;;;;;;;4903346;29;20433;-73
2023/03/23 06:12:52;;;;;;;5.47;1.58;;;;;;;;;;4902459;29;20179;-73
2023/03/23 06:15:18;;;;;;;3.00;1.70;;;;;;;;;;4902592;29;20183;-73
2023/03/23 06:17:44;;;;;;;2.50;1.30;;;;;;;;;;4902757;29;20307;-72
2023/03/23 06:20:11;;;;;;;6.27;1.80;;;;;;;;;;4903512;29;20419;-73
2023/03/23 06:22:40;;;;;;;2.23;1.50;;;;;;;;;;4902908;29;20417;-72
2023/03/23 06:25:06;;;;;;;2.07;1.57;;;;;;;;;;4903201;29;20419;-72
2023/03/23 06:27:33;;;;;;;3.10;1.35;;;;;;;;;;4902721;29;20435;-72
2023/03/23 06:29:59;;;;;;;5.22;1.70;;;;;;;;;;4886430;29;20214;-72
2023/03/23 06:32:25;;;;;;;4.37;1.20;;;;;;;;;;4902542;29;20186;-73
2023/03/23 06:34:51;;;;;;;5.05;2.15;;;;;;;;;;4902347;29;20758;-72
2023/03/23 06:37:17;;;;;;;3.90;1.75;;;;;;;;;;4902558;29;20203;-73
2023/03/23 06:39:43;;;;;;;5.33;1.37;;;;;;;;;;4901916;29;20183;-73
2023/03/23 06:42:11;;;;;;;1.90;1.20;;;;;;;;;;4902601;29;20436;-72
2023/03/23 06:44:37;;;;;;;4.70;1.50;;;;;;;;;;4902108;29;20426;-73
2023/03/23 06:47:03;;;;;;;2.20;1.70;;;;;;;;;;4902811;29;20410;-73
2023/03/23 06:49:29;;;;;;;3.70;1.67;;;;;;;;;;4902143;29;20419;-73
2023/03/23 06:51:56;;;;;;;5.70;1.50;;;;;;;;;;4902796;29;20892;-72
2023/03/23 06:54:22;;;;;;;4.00;1.40;;;;;;;;;;4902358;29;20407;-73
2023/03/23 06:56:48;;;;;;;3.70;1.23;;;;;;;;;;4901916;29;20601;-72
2023/03/23 06:59:14;;;;;;;4.37;1.57;;;;;;;;;;4902267;29;20489;-73
2023/03/23 07:01:40;;;;;;;3.47;1.40;;;;;;;;;;4902012;29;20514;-73
2023/03/23 07:04:06;;;;;;;3.73;1.27;;;;;;;;;;4902050;29;20849;-72
2023/03/23 07:06:32;;;;;;;4.63;1.50;;;;;;;;;;4902307;29;20453;-73
2023/03/23 07:08:58;;;;;;;3.43;1.40;;;;;;;;;;4902030;29;20451;-72
2023/03/23 07:11:24;;;;;;;8.53;1.50;;;;;;;;;;4901260;29;20498;-73
2023/03/23 07:13:51;;;;;;;1.80;1.40;;;;;;;;;;4901845;29;20430;-72
2023/03/23 07:16:17;;;;;;;2.27;1.50;;;;;;;;;;4901914;29;20540;-72
2023/03/23 07:18:43;;;;;;;3.80;1.53;;;;;;;;;;4901953;29;20551;-72
2023/03/23 07:21:10;;;;;;;2.70;1.20;;;;;;;;;;4902150;29;20539;-73
2023/03/23 07:23:36;;;;;;;1.90;1.20;;;;;;;;;;4901773;29;20187;-72
2023/03/23 07:26:03;;;;;;;4.97;1.47;;;;;;;;;;4901814;29;20430;-73
2023/03/23 07:28:29;;;;;;;5.10;1.33;;;;;;;;;;4901785;29;20550;-72
2023/03/23 07:30:55;;;;;;;4.53;1.77;;;;;;;;;;4901638;29;20501;-72
2023/03/23 07:33:22;;;;;;;6.30;1.50;;;;;;;;;;4901463;29;20399;-72
2023/03/23 07:35:48;;;;;;;3.40;1.40;;;;;;;;;;4900568;29;20493;-72
2023/03/23 07:38:14;;;;;;;4.30;1.57;;;;;;;;;;4901503;29;20436;-72
2023/03/23 07:40:41;;;;;;;5.63;1.53;;;;;;;;;;4900911;29;20891;-72
2023/03/23 07:43:07;;;;;;;2.90;1.27;;;;;;;;;;4900405;29;20830;-81
2023/03/23 07:45:33;;;;;;;1.53;1.00;;;;;;;;;;4900055;29;20411;-81
2023/03/23 07:47:59;;;;;;;2.63;1.27;;;;;;;;;;4899095;29;20517;-80
2023/03/23 07:50:26;;;;;;;4.73;0.97;;;;;;;;;;4898916;29;20435;-81
2023/03/23 07:52:54;;;;;;;2.27;1.20;;;;;;;;;;4900445;29;20403;-81
2023/03/23 07:55:20;;;;;;;2.40;1.30;;;;;;;;;;4901077;29;20418;-75
2023/03/23 07:57:49;;;;;;;2.77;1.53;;;;;;;;;;4901605;29;20558;-74
2023/03/23 08:00:19;;;;;;;4.00;1.60;;;;;;;;;;4901599;29;20464;-74
2023/03/23 08:02:49;;;;;;;5.07;1.40;;;;;;;;;;4899941;29;20916;-74
2023/03/23 08:05:17;;;;;;;11.73;3.10;;;;;;;;;;4901675;29;20463;-74
2023/03/23 08:07:44;;;;;;;4.00;2.10;;;;;;;;;;4901550;29;20419;-74
2023/03/23 08:10:11;;;;;;;4.87;1.40;;;;;;;;;;4901511;29;20424;-74
2023/03/23 08:12:38;;;;;;;6.47;1.73;;;;;;;;;;4901096;29;20408;-74
2023/03/23 08:15:04;;;;;;;6.33;1.63;;;;;;;;;;4901748;29;20482;-74
2023/03/23 08:17:31;;;;;;;3.40;1.50;;;;;;;;;;4901163;29;20518;-74
2023/03/23 08:19:57;;;;;;;6.33;1.30;;;;;;;;;;4901013;29;20431;-74
2023/03/23 08:22:24;;;;;;;2.40;1.20;;;;;;;;;;4902418;29;20502;-74
2023/03/23 08:24:50;;;;;;;2.27;1.30;;;;;;;;;;4905317;29;20442;-74
2023/03/23 08:27:16;;;;;;;3.27;1.37;;;;;;;;;;4905198;29;20915;-74
2023/03/23 08:29:45;;;;;;;5.23;1.83;;;;;;;;;;4904807;29;20461;-74
2023/03/23 08:32:11;;;;;;;8.70;2.17;;;;;;;;;;4904770;29;20424;-74
2023/03/23 08:34:37;;;;;;;3.73;2.03;;;;;;;;;;4904476;29;20411;-74
2023/03/23 08:37:03;;;;;;;4.90;1.50;;;;;;;;;;4904859;29;20956;-73
2023/03/23 08:39:30;;;;;;;4.40;1.37;;;;;;;;;;4904876;29;20515;-74
2023/03/23 08:41:56;;;;;;;4.80;1.70;;;;;;;;;;4904552;29;20752;-74
2023/03/23 08:44:23;;;;;;;3.07;1.40;;;;;;;;;;4904485;29;20426;-75
2023/03/23 08:46:49;;;;;;;2.40;1.17;;;;;;;;;;4905005;29;20451;-73
2023/03/23 08:49:15;;;;;;;6.20;1.30;;;;;;;;;;4904913;29;20474;-73
2023/03/23 08:51:41;;;;;;;2.37;1.30;;;;;;;;;;4904548;29;20414;-73
2023/03/23 08:54:08;;;;;;;3.13;1.53;;;;;;;;;;4904933;29;20432;-73
2023/03/23 08:56:34;;;;;;;4.27;1.30;;;;;;;;;;4904111;29;20502;-74
2023/03/23 08:59:00;;;;;;;2.63;1.40;;;;;;;;;;4904213;29;20420;-74
2023/03/23 09:01:26;;;;;;;2.47;1.40;;;;;;;;;;4904126;29;20419;-72
2023/03/23 09:03:53;;;;;;;3.93;1.47;;;;;;;;;;4904580;29;20496;-72
2023/03/23 09:06:20;;;;;;;4.03;1.20;;;;;;;;;;4903985;29;20451;-72
2023/03/23 09:08:46;;;;;;;7.70;2.33;;;;;;;;;;4904648;29;20431;-72
2023/03/23 09:11:12;;;;;;;3.07;1.27;;;;;;;;;;4904685;29;20401;-72
2023/03/23 09:13:39;;;;;;;3.67;1.50;;;;;;;;;;4903941;29;20904;-72
2023/03/23 09:16:06;;;;;;;3.90;1.30;;;;;;;;;;4904397;29;20439;-72
2023/03/23 09:18:33;;;;;;;1.30;1.20;;;;;;;;;;4903798;29;20904;-72
2023/03/23 09:20:59;;;;;;;1.70;1.10;;;;;;;;;;4903911;29;20924;-72
2023/03/23 09:23:25;;;;;;;3.90;1.57;;;;;;;;;;4904422;29;20411;-74
2023/03/23 09:25:51;;;;;;;4.10;1.63;;;;;;;;;;4904537;29;20875;-72
2023/03/23 09:28:18;;;;;;;6.50;3.23;;;;;;;;;;4904174;29;20419;-72
2023/03/23 09:30:45;;;;;;;4.90;1.77;;;;;;;;;;4902923;29;20423;-72
2023/03/23 09:33:11;;;;;;;6.60;3.03;;;;;;;;;;4902334;29;20508;-72
2023/03/23 09:35:38;;;;;;;4.07;1.10;;;;;;;;;;4902841;29;20502;-72
2023/03/23 09:38:04;;;;;;;3.43;1.23;;;;;;;;;;4904045;29;20438;-72
2023/03/23 09:40:40;;;;;;;3.20;1.97;;;;;;;;;;4886971;29;20423;-72
2023/03/23 09:43:14;;;;;;;4.40;1.60;;;;;;;;;;4904066;29;20455;-72
2023/03/23 09:45:57;;;;;;;6.47;1.87;;;;;;;;;;4904018;29;20419;-72
2023/03/23 09:48:37;;;;;;;5.50;1.80;;;;;;;;;;4903782;29;20418;-72
2023/03/23 09:51:07;;;;;;;3.90;1.47;;;;;;;;;;4904145;29;20423;-72
2023/03/23 09:53:37;;;;;;;3.87;1.90;;;;;;;;;;4903756;29;20495;-72
2023/03/23 09:56:08;;;;;;;8.53;1.23;;;;;;;;;;4903719;29;20774;-73
2023/03/23 09:58:53;;;;;;;4.60;1.77;;;;;;;;;;4908218;29;20382;-72
2023/03/23 10:01:28;;;;;;;3.37;1.27;;;;;;;;;;4912896;29;20415;-72
2023/03/23 10:03:58;;;;;;;3.37;1.03;;;;;;;;;;4911514;29;20655;-72
2023/03/23 10:06:25;;;;;;;1.93;1.00;;;;;;;;;;4885007;29;20435;-72
2023/03/23 10:08:52;;;;;;;3.80;1.30;;;;;;;;;;4884404;29;20736;-72
2023/03/23 10:11:22;;;;;;;3.97;1.30;;;;;;;;;;4884490;29;20486;-72
2023/03/23 10:13:48;;;;;;;4.00;1.20;;;;;;;;;;4884013;29;20420;-72
2023/03/23 10:16:18;;;;;;;5.67;1.23;;;;;;;;;;4868125;29;20578;-72
2023/03/23 10:18:48;;;;;;;2.53;0.90;;;;;;;;;;4884094;29;20961;-73
2023/03/23 10:21:16;;;;;;;2.27;1.10;;;;;;;;;;4884547;29;20839;-72
2023/03/23 10:24:00;;;;;;;4.47;1.23;;;;;;;;;;4884451;29;20428;-72
2023/03/23 10:26:31;;;;;;;2.13;0.90;;;;;;;;;;4884476;29;20406;-72
2023/03/23 10:29:10;;;;;;;1.83;0.90;;;;;;;;;;4885046;29;20397;-72
2023/03/23 10:31:41;;;;;;;1.97;0.90;;;;;;;;;;4903130;29;20394;-72
2023/03/23 10:34:30;;;;;;;2.90;0.67;;;;;;;;;;4902581;29;20750;-72
2023/03/23 10:37:15;;;;;;;2.27;0.93;;;;;;;;;;4902391;29;20498;-71
2023/03/23 10:39:50;;;;;;;1.87;0.97;;;;;;;;;;4902582;29;20442;-72
2023/03/23 10:42:42;;;;;;;1.20;1.07;;;;;;;;;;4886304;29;20927;-71
2023/03/23 10:45:17;;;;;;;2.40;0.80;;;;;;;;;;4900746;29;20482;-72
2023/03/23 10:47:45;;;;;;;1.10;0.80;;;;;;;;;;4902248;29;20455;-72
2023/03/23 10:50:13;;;;;;;1.93;1.07;;;;;;;;;;4903182;29;20551;-72
2023/03/23 10:52:41;;;;;;;2.40;0.90;;;;;;;;;;4901852;29;20412;-79
2023/03/23 10:55:17;;;;;;;1.60;1.00;;;;;;;;;;4909307;29;20447;-78
2023/03/23 10:57:48;;;;;;;4.03;1.30;;;;;;;;;;4906178;29;21057;-78
2023/03/23 11:00:16;;;;;;;2.70;1.10;;;;;;;;;;4894111;29;20510;-81
2023/03/23 11:02:44;;;;;;;1.70;1.00;;;;;;;;;;4892299;29;20518;-72
2023/03/23 11:05:16;;;;;;;3.43;1.17;;;;;;;;;;4920981;29;20429;-72
2023/03/23 11:07:48;;;;;;;4.47;1.20;;;;;;;;;;4920739;29;20398;-72
2023/03/23 11:10:22;;;;;;;2.10;0.90;;;;;;;;;;4921316;29;20399;-71
2023/03/23 11:12:48;;;;;;;2.77;1.63;;;;;;;;;;4920736;29;20442;-72
2023/03/23 11:15:23;;;;;;;3.27;0.97;;;;;;;;;;4920967;29;20437;-72
2023/03/23 11:17:56;;;;;;;4.67;1.23;;;;;;;;;;4921135;29;20465;-72
2023/03/23 11:20:22;;;;;;;3.17;0.90;;;;;;;;;;4921060;29;20414;-72
2023/03/23 11:22:48;;;;;;;1.67;0.80;;;;;;;;;;4920539;29;20919;-72
2023/03/23 11:25:15;;;;;;;1.33;0.80;;;;;;;;;;4921308;29;20420;-72
2023/03/23 11:27:42;;;;;;;2.40;0.80;;;;;;;;;;4920578;29;20418;-72
2023/03/23 11:30:19;;;;;;;5.47;1.10;;;;;;;;;;4920458;29;20450;-73
2023/03/23 11:32:47;;;;;;;3.60;0.80;;;;;;;;;;4920602;29;20722;-73
2023/03/23 11:35:39;;;;;;;1.10;0.70;;;;;;;;;;4919829;29;20550;-73
2023/03/23 11:38:07;;;;;;;3.23;0.90;;;;;;;;;;4917155;29;20545;-73
2023/03/23 11:40:35;;;;;;;3.73;1.80;;;;;;;;;;4920812;29;20418;-73
2023/03/23 11:43:01;;;;;;;4.20;1.27;;;;;;;;;;4920564;29;20418;-73
2023/03/23 11:45:41;;;;;;;7.33;1.33;;;;;;;;;;4920540;29;20418;-73
2023/03/23 11:48:07;;;;;;;7.10;1.03;;;;;;;;;;4920294;29;20421;-73
2023/03/23 11:50:34;;;;;;;10.73;1.37;;;;;;;;;;4920640;29;20392;-73
2023/03/23 11:53:02;;;;;;;1.20;0.70;;;;;;;;;;4920189;29;20501;-73
2023/03/23 11:55:55;;;;;;;1.20;0.90;;;;;;;;;;4920666;29;20381;-73
2023/03/23 11:58:21;;;;;;;1.83;1.00;;;;;;;;;;4910410;29;20461;-73
2023/03/23 12:00:57;;;;;;;2.07;1.10;;;;;;;;;;4920640;29;20418;-73
2023/03/23 12:03:47;;;;;;;1.53;0.93;;;;;;;;;;4920387;29;20410;-73
2023/03/23 12:06:16;;;;;;;2.27;1.00;;;;;;;;;;4885037;29;20430;-73
2023/03/23 12:08:44;;;;;;;1.07;0.80;;;;;;;;;;4920481;29;20413;-73
2023/03/23 12:11:17;;;;;;;2.40;1.10;;;;;;;;;;4920391;29;20438;-73
2023/03/23 12:13:52;;;;;;;3.20;0.80;;;;;;;;;;4919938;29;20411;-73
2023/03/23 12:16:22;;;;;;;2.37;0.87;;;;;;;;;;4920243;29;20890;-73
2023/03/23 12:18:55;;;;;;;2.67;0.93;;;;;;;;;;4919495;29;20406;-72
2023/03/23 12:21:27;;;;;;;2.17;1.03;;;;;;;;;;4920428;29;20369;-73
2023/03/23 12:23:53;;;;;;;1.47;0.83;;;;;;;;;;4919964;29;20527;-73
2023/03/23 12:26:26;;;;;;;5.13;2.43;;;;;;;;;;4920133;29;20419;-73
2023/03/23 12:29:04;;;;;;;1.20;0.70;;;;;;;;;;4919065;29;20411;-73
2023/03/23 12:31:30;;;;;;;2.03;0.80;;;;;;;;;;4920141;29;20455;-73
2023/03/23 12:34:05;;;;;;;2.53;1.07;;;;;;;;;;4919853;29;20836;-73
2023/03/23 12:36:51;;;;;;;5.03;1.37;;;;;;;;;;4919223;29;20986;-73
2023/03/23 12:39:35;;;;;;;4.40;1.73;;;;;;;;;;4918074;29;20417;-73
2023/03/23 12:42:07;;;;;;;1.77;0.80;;;;;;;;;;4918983;29;20421;-73
2023/03/23 12:44:41;;;;;;;2.03;1.30;;;;;;;;;;4919483;29;20402;-73
2023/03/23 12:47:13;;;;;;;2.60;0.90;;;;;;;;;;4920086;29;20407;-73
2023/03/23 12:50:07;;;;;;;4.43;1.00;;;;;;;;;;4920113;29;20417;-73
2023/03/23 12:52:41;;;;;;;2.73;1.17;;;;;;;;;;4892059;29;20437;-73
2023/03/23 12:55:24;;;;;;;2.80;1.53;;;;;;;;;;4919693;29;20369;-73
2023/03/23 12:57:59;;;;;;;1.30;1.00;;;;;;;;;;4919814;29;20457;-73
2023/03/23 13:00:27;;;;;;;1.87;1.23;;;;;;;;;;4919583;29;20770;-73
2023/03/23 13:03:11;;;;;;;0.90;0.83;;;;;;;;;;4919350;29;20730;-73
2023/03/23 13:05:54;;;;;;;1.90;1.03;;;;;;;;;;4919852;29;20433;-73
2023/03/23 13:08:26;;;;;;;3.33;1.53;;;;;;;;;;4921117;29;20505;-73
2023/03/23 13:10:55;;;;;;;1.17;0.90;;;;;;;;;;4906066;29;20915;-73
2023/03/23 13:13:23;;;;;;;1.97;1.00;;;;;;;;;;4923193;29;20473;-72
2023/03/23 13:15:57;;;;;;;3.50;1.10;;;;;;;;;;4922566;29;20437;-73
2023/03/23 13:18:30;;;;;;;1.27;0.90;;;;;;;;;;4923050;29;20418;-72
2023/03/23 13:21:11;;;;;;;5.30;1.30;;;;;;;;;;4922910;29;20418;-73
2023/03/23 13:24:06;;;;;;;1.00;0.80;;;;;;;;;;4923127;29;20442;-73
2023/03/23 13:26:39;;;;;;;1.50;0.87;;;;;;;;;;4906434;29;20839;-73
2023/03/23 13:29:24;;;;;;;1.50;0.90;;;;;;;;;;4923312;29;20888;-73
2023/03/23 13:31:51;;;;;;;11.40;1.40;;;;;;;;;;4922434;29;20401;-73
2023/03/23 13:34:20;;;;;;;1.33;0.70;;;;;;;;;;4923040;29;20497;-72
2023/03/23 13:36:54;;;;;;;1.30;1.07;;;;;;;;;;4922605;29;20490;-73
2023/03/23 13:39:21;;;;;;;2.60;1.37;;;;;;;;;;4922899;29;20446;-73
2023/03/23 13:41:59;;;;;;;2.40;1.10;;;;;;;;;;4922209;29;20418;-73
2023/03/23 13:44:27;;;;;;;1.30;0.93;;;;;;;;;;4922643;29;20365;-73
2023/03/23 13:47:16;;;;;;;2.53;0.83;;;;;;;;;;4922573;29;20414;-73
2023/03/23 13:49:58;;;;;;;2.83;1.00;;;;;;;;;;4912460;29;20486;-73
2023/03/23 13:52:26;;;;;;;5.30;1.03;;;;;;;;;;4923093;29;20437;-73
2023/03/23 13:55:08;;;;;;;3.57;1.43;;;;;;;;;;4922090;29;20418;-73
2023/03/23 13:57:49;;;;;;;2.93;1.40;;;;;;;;;;4922257;29;20495;-73
2023/03/23 14:00:27;;;;;;;5.20;1.77;;;;;;;;;;4922582;29;20374;-73
2023/03/23 14:03:11;;;;;;;8.13;2.30;;;;;;;;;;4921932;29;20406;-73
2023/03/23 14:05:42;;;;;;;4.47;1.40;;;;;;;;;;4922294;29;20446;-73
2023/03/23 14:08:17;;;;;;;3.67;2.03;;;;;;;;;;4921863;29;20410;-73
2023/03/23 14:10:45;;;;;;;5.23;2.47;;;;;;;;;;4921043;29;20399;-77
2023/03/23 14:13:22;;;;;;;2.70;1.73;;;;;;;;;;4921313;29;20805;-76
2023/03/23 14:15:57;;;;;;;7.40;2.33;;;;;;;;;;4921002;29;20416;-76
2023/03/23 14:18:24;;;;;;;5.07;2.13;;;;;;;;;;4921397;29;20849;-76
2023/03/23 14:20:50;;;;;;;3.40;1.23;;;;;;;;;;4920756;29;20422;-76
2023/03/23 14:23:17;;;;;;;3.40;1.40;;;;;;;;;;4921162;29;20476;-76
2023/03/23 14:25:44;;;;;;;3.67;2.00;;;;;;;;;;4921032;29;20414;-78
2023/03/23 14:28:18;;;;;;;2.23;1.20;;;;;;;;;;4920922;29;20389;-76
2023/03/23 14:30:44;;;;;;;4.00;1.67;;;;;;;;;;4920705;29;20532;-77
2023/03/23 14:33:12;;;;;;;4.40;1.60;;;;;;;;;;4904032;29;20934;-76
2023/03/23 14:35:40;;;;;;;6.37;2.70;;;;;;;;;;4920697;29;20533;-76
2023/03/23 14:38:11;;;;;;;3.57;1.23;;;;;;;;;;4920377;29;20432;-76
2023/03/23 14:40:37;;;;;;;2.10;1.60;;;;;;;;;;4920843;29;20733;-76
2023/03/23 14:43:05;;;;;;;3.73;1.40;;;;;;;;;;4903687;29;20425;-76
2023/03/23 14:45:32;;;;;;;1.80;1.30;;;;;;;;;;4920660;29;20485;-76
2023/03/23 14:47:59;;;;;;;1.73;1.00;;;;;;;;;;4904018;29;20419;-76
2023/03/23 14:50:30;;;;;;;2.20;1.20;;;;;;;;;;4921004;29;20468;-76
2023/03/23 14:53:00;;;;;;;4.20;1.13;;;;;;;;;;4920497;29;20421;-76
2023/03/23 14:55:30;;;;;;;6.10;1.53;;;;;;;;;;4920352;29;20422;-76